KD7MPG-3 Weather Reports


time (UTC)temp
C
wind
direction
speed
KPH
gust
KPH
rain 1hr
cm
rain 24hr
cm
rain mn
cm
humidity
%
barometer
mb
20260503200100 27 347 3.2 11.3 0.00 0.00 0.00 56 1018.7
20260503195602 27 20 3.2 11.3 0.00 0.00 0.00 58 1018.9
20260503195102 26 74 3.2 11.3 0.00 0.00 0.00 58 1018.9
20260503194601 26 292 3.2 14.5 0.00 0.00 0.00 58 1019.0
20260503194101 26 291 4.8 14.5 0.00 0.00 0.00 58 1019.0
20260503193602 26 259 3.2 11.3 0.00 0.00 0.00 59 1019.2
20260503193056 26 275 3.2 11.3 0.00 0.00 0.00 60 1019.3
20260503192602 25 314 4.8 9.7 0.00 0.00 0.00 62 1019.3
20260503192058 25 13 3.2 9.7 0.00 0.00 0.00 63 1019.3
20260503191557 25 263 4.8 12.9 0.00 0.00 0.00 62 1019.3
20260503191057 25 288 3.2 12.9 0.00 0.00 0.00 63 1019.3
20260503190558 24 317 3.2 8.0 0.00 0.00 0.00 65 1019.4
20260503190056 24 5 4.8 11.3 0.00 0.00 0.00 65 1019.3
20260503185557 24 275 4.8 11.3 0.00 0.00 0.00 64 1019.4
20260503185056 24 286 3.2 6.4 0.00 0.00 0.00 64 1019.5
20260503184556 24 281 3.2 12.9 0.00 0.00 0.00 64 1019.5
20260503184056 24 259 3.2 12.9 0.00 0.00 0.00 64 1019.5
20260503183554 23 34 1.6 6.4 0.00 0.00 0.00 66 1019.5
20260503183056 23 230 1.6 4.8 0.00 0.00 0.00 66 1019.6
20260503182553 23 304 3.2 8.0 0.00 0.00 0.00 65 1019.6
20260503182052 23 57 3.2 8.0 0.00 0.00 0.00 66 1019.7
20260503181552 23 350 1.6 6.4 0.00 0.00 0.00 67 1019.6
20260503181053 23 31 1.6 8.0 0.00 0.00 0.00 68 1019.7
20260503180552 22 342 1.6 8.0 0.00 0.00 0.00 68 1019.7
20260503180052 22 53 3.2 8.0 0.00 0.00 0.00 69 1019.9
20260503175549 22 63 3.2 8.0 0.00 0.00 0.00 70 1019.9
20260503175046 22 57 3.2 8.0 0.00 0.00 0.00 69 1019.9
20260503174546 21 17 3.2 9.7 0.00 0.00 0.00 70 1020.0
20260503174046 21 306 3.2 9.7 0.00 0.00 0.00 70 1020.0
20260503173546 21 22 4.8 8.0 0.00 0.00 0.00 70 1020.0
20260503173042 21 340 4.8 9.7 0.00 0.00 0.00 72 1020.1
20260503172540 21 0 4.8 9.7 0.00 0.00 0.00 72 1020.2
20260503172040 21 338 4.8 8.0 0.00 0.00 0.00 71 1020.2
20260503171540 21 343 3.2 9.7 0.00 0.00 0.00 72 1020.1
20260503171040 21 335 3.2 9.7 0.00 0.00 0.00 72 1020.0
20260503170541 20 311 3.2 8.0 0.00 0.00 0.00 73 1020.0
20260503150517 13 355 0.0 1.6 0.00 0.00 0.00 91 1020.4
20260503130952 9 355 0.0 0.0 0.00 0.00 0.00 93 1020.0
20260503130453 9 355 0.0 0.0 0.00 0.00 0.00 92 1020.1
20260503110427 10 0 0.0 0.0 0.00 0.00 0.00 92 1020.3
20260503090408 12 355 0.0 1.6 0.00 0.00 0.00 91 1020.5
20260503081359 12 355 0.0 0.0 0.00 0.00 0.00 90 1020.7
20260503080901 12 355 0.0 0.0 0.00 0.00 0.00 90 1020.7
20260503080400 12 355 0.0 0.0 0.00 0.00 0.00 90 1020.7
20260503072845 13 0 0.0 0.0 0.00 0.00 0.00 90 1021.0
20260503072345 13 355 0.0 0.0 0.00 0.00 0.00 90 1021.1
20260503071841 13 355 0.0 0.0 0.00 0.00 0.00 89 1021.1
20260503071342 13 355 0.0 0.0 0.00 0.00 0.00 89 1021.2
20260503070840 13 355 0.0 0.0 0.00 0.00 0.00 89 1021.2
20260503070338 13 355 0.0 0.0 0.00 0.00 0.00 89 1021.2
20260503060329 15 355 0.0 3.2 0.00 0.00 0.00 87 1021.1
20260503054829 15 351 1.6 4.8 0.00 0.00 0.00 87 1021.1
20260503054329 15 355 1.6 4.8 0.00 0.00 0.00 87 1021.0
20260503053830 15 355 0.0 4.8 0.00 0.00 0.00 86 1020.8
20260503053323 15 355 0.0 1.6 0.00 0.00 0.00 86 1021.1
20260503052822 16 355 0.0 1.6 0.00 0.00 0.00 85 1021.0
20260503052319 16 0 0.0 3.2 0.00 0.00 0.00 85 1021.0
20260503051817 16 355 0.0 3.2 0.00 0.00 0.00 85 1021.0
20260503051318 16 0 0.0 3.2 0.00 0.00 0.00 85 1021.0
20260503050815 16 0 0.0 3.2 0.00 0.00 0.00 85 1020.9
20260503050313 16 0 0.0 3.2 0.00 0.00 0.00 84 1020.9
20260503045815 16 355 0.0 3.2 0.00 0.00 0.00 84 1020.9
20260503045314 16 0 0.0 0.0 0.00 0.00 0.00 84 1021.1
20260503044811 16 0 0.0 3.2 0.00 0.00 0.00 84 1021.1
20260503044311 16 0 0.0 3.2 0.00 0.00 0.00 83 1021.1
20260503043805 16 355 0.0 3.2 0.00 0.00 0.00 83 1021.1
20260503043304 17 355 0.0 3.2 0.00 0.00 0.00 83 1021.0
20260503042801 17 355 0.0 3.2 0.00 0.00 0.00 83 1021.0
20260503042300 17 355 0.0 3.2 0.00 0.00 0.00 83 1021.0
20260503041800 17 355 1.6 6.4 0.00 0.00 0.00 82 1020.8
20260503041258 17 0 1.6 6.4 0.00 0.00 0.00 82 1020.8
20260503040755 17 344 0.0 1.6 0.00 0.00 0.00 82 1020.7
20260503040256 17 344 0.0 1.6 0.00 0.00 0.00 81 1020.8
20260503035755 17 344 0.0 3.2 0.00 0.00 0.00 80 1020.9
20260503035254 17 0 1.6 4.8 0.00 0.00 0.00 80 1020.7
20260503034753 17 344 1.6 4.8 0.00 0.00 0.00 80 1020.7
20260503034249 17 344 0.0 4.8 0.00 0.00 0.00 79 1020.5
20260503033749 17 344 1.6 4.8 0.00 0.00 0.00 79 1020.6
20260503033247 18 344 1.6 4.8 0.00 0.00 0.00 79 1020.3
20260503032747 18 0 1.6 3.2 0.00 0.00 0.00 79 1020.1
20260503032247 18 339 1.6 6.4 0.00 0.00 0.00 79 1020.0
20260503031747 18 9 1.6 6.4 0.00 0.00 0.00 79 1020.1
20260503031242 18 22 1.6 4.8 0.00 0.00 0.00 79 1020.0
20260503030741 18 74 1.6 6.4 0.00 0.00 0.00 79 1020.1
20260503030241 18 42 3.2 8.0 0.00 0.00 0.00 79 1020.1
20260503025742 18 46 3.2 8.0 0.00 0.00 0.00 78 1020.1
20260503025241 18 52 3.2 8.0 0.00 0.00 0.00 78 1020.2
20260503024742 18 0 3.2 6.4 0.00 0.00 0.00 78 1019.9
20260503024236 18 305 3.2 6.4 0.00 0.00 0.00 78 1019.9
20260503023735 18 338 3.2 6.4 0.00 0.00 0.00 78 1019.7
20260503023235 18 271 3.2 6.4 0.00 0.00 0.00 78 1019.6
20260503022735 18 272 1.6 6.4 0.00 0.00 0.00 78 1019.7
20260503022234 18 338 1.6 6.4 0.00 0.00 0.00 78 1019.9
20260503021736 18 0 0.0 4.8 0.00 0.00 0.00 77 1019.9
20260503021230 18 115 0.0 0.0 0.00 0.00 0.00 77 1020.1
20260503020730 18 115 0.0 0.0 0.00 0.00 0.00 77 1020.4
20260503020229 18 114 1.6 6.4 0.00 0.00 0.00 76 1020.3
20260503015729 18 114 1.6 6.4 0.00 0.00 0.00 76 1020.6
20260503015229 18 114 1.6 6.4 0.00 0.00 0.00 76 1020.9
20260503014730 19 99 1.6 6.4 0.00 0.00 0.00 76 1021.1
20260503014225 19 142 4.8 14.5 0.00 0.00 0.00 75 1021.2
20260503013725 19 84 6.4 14.5 0.00 0.00 0.00 74 1021.1
20260503013226 20 92 6.4 16.1 0.00 0.00 0.00 74 1021.4
20260503012724 20 139 6.4 16.1 0.00 0.00 0.00 72 1021.3
20260503012223 20 192 4.8 14.5 0.00 0.00 0.00 72 1021.4
20260503011724 20 84 4.8 11.3 0.00 0.00 0.00 71 1021.1
20260503011216 20 109 3.2 9.7 0.00 0.00 0.00 71 1020.8
20260503010717 21 105 1.6 4.8 0.00 0.00 0.00 71 1020.7
20260503010216 21 113 1.6 6.4 0.00 0.00 0.00 70 1020.8
20260503005716 21 97 3.2 6.4 0.00 0.00 0.00 70 1020.7
20260503005217 21 102 1.6 9.7 0.00 0.00 0.00 69 1020.7
20260503004718 21 72 1.6 9.7 0.00 0.00 0.00 70 1020.6
20260503004214 21 103 1.6 9.7 0.00 0.00 0.00 68 1020.6
20260503003713 21 76 1.6 4.8 0.00 0.00 0.00 69 1020.6
20260503003214 20 342 1.6 6.4 0.00 0.00 0.00 69 1020.7
20260503002713 20 38 1.6 6.4 0.00 0.00 0.00 69 1020.7
20260503002211 20 78 1.6 3.2 0.00 0.00 0.00 69 1020.5
20260503001712 20 96 1.6 6.4 0.00 0.00 0.00 70 1020.6
20260503001208 20 96 1.6 8.0 0.00 0.00 0.00 69 1020.5
20260503000706 20 36 1.6 8.0 0.00 0.00 0.00 70 1020.5
20260503000208 20 0 1.6 6.4 0.00 0.00 0.00 68 1020.4
20260502235707 20 355 1.6 6.4 0.00 0.00 0.00 69 1020.4
20260502235205 20 65 3.2 6.4 0.00 0.00 0.00 71 1020.5
20260502234706 20 90 3.2 9.7 0.00 0.00 0.00 71 1020.5
20260502234159 20 273 4.8 9.7 0.00 0.00 0.00 70 1020.5
20260502233659 20 0 4.8 19.3 0.00 0.00 0.00 71 1020.7
20260502233200 20 350 4.8 19.3 0.00 0.00 0.00 70 1020.7
20260502232659 20 59 4.8 12.9 0.00 0.00 0.00 71 1020.8
20260502232156 20 349 3.2 12.9 0.00 0.00 0.00 69 1020.9
20260502231656 20 0 3.2 8.0 0.00 0.00 0.00 71 1021.0
20260502231152 19 17 3.2 8.0 0.00 0.00 0.00 72 1021.1
20260502230651 19 342 3.2 8.0 0.00 0.00 0.00 71 1021.1
20260502230151 19 25 1.6 8.0 0.00 0.00 0.00 72 1021.3
20260502225651 18 72 3.2 8.0 0.00 0.00 0.00 74 1021.4
20260502225151 18 24 3.2 8.0 0.00 0.00 0.00 73 1021.4
20260502224652 18 332 3.2 8.0 0.00 0.00 0.00 75 1021.6
20260502224146 18 287 4.8 12.9 0.00 0.00 0.00 73 1021.5
20260502223645 18 30 4.8 12.9 0.00 0.00 0.00 73 1021.7
20260502223145 18 49 3.2 9.7 0.00 0.00 0.00 74 1021.8
20260502222645 18 250 3.2 6.4 0.00 0.00 0.00 73 1021.8
20260502222145 18 21 3.2 6.4 0.00 0.00 0.00 73 1021.9
20260502221646 18 54 3.2 16.1 0.00 0.00 0.00 74 1022.0
20260502221145 18 123 4.8 16.1 0.00 0.00 0.00 76 1021.9
20260502220638 18 105 3.2 11.3 0.00 0.00 0.00 74 1021.9
20260502220131 18 71 3.2 11.3 0.00 0.00 0.00 75 1022.0
20260502215628 18 51 3.2 11.3 0.00 0.00 0.00 74 1022.1
20260502215133 18 11 3.2 11.3 0.00 0.00 0.00 75 1022.1
20260502214630 18 14 3.2 11.3 0.00 0.00 0.00 73 1022.2
20260502214129 18 85 4.8 11.3 0.00 0.00 0.00 75 1022.3
20260502213628 18 86 4.8 11.3 0.00 0.00 0.00 75 1022.3
20260502213131 18 92 3.2 11.3 0.00 0.00 0.00 73 1022.2
20260502212623 18 115 3.2 9.7 0.00 0.00 0.00 72 1022.3
20260502212119 19 86 4.8 12.9 0.00 0.00 0.00 72 1022.3
20260502211618 19 349 4.8 14.5 0.00 0.00 0.00 72 1022.5
20260502211121 19 65 4.8 14.5 0.00 0.00 0.00 73 1022.6
20260502210618 18 13 4.8 12.9 0.00 0.00 0.00 74 1022.7
20260502210118 18 76 3.2 12.9 0.00 0.00 0.00 74 1022.7
20260502205621 18 17 4.8 12.9 0.00 0.00 0.00 74 1022.8
20260502205115 18 279 4.8 12.9 0.00 0.00 0.00 73 1022.9
20260502204615 18 263 3.2 11.3 0.00 0.00 0.00 72 1022.9
20260502204115 17 279 3.2 11.3 0.00 0.00 0.00 74 1022.8
20260502203614 17 293 3.2 11.3 0.00 0.00 0.00 73 1023.0
20260502203114 17 51 4.8 14.5 0.00 0.00 0.00 75 1023.0
20260502202616 17 355 4.8 14.5 0.00 0.00 0.00 73 1023.2
20260502202110 17 83 4.8 14.5 0.00 0.00 0.00 75 1023.2
20260502201611 16 11 6.4 14.5 0.00 0.00 0.00 76 1023.2
20260502201111 16 330 4.8 12.9 0.00 0.00 0.00 77 1023.2
20260502200610 16 309 3.2 14.5 0.00 0.00 0.00 76 1023.4